Portada
METAR-TAF:

METAR-TAF

Aeroports :

Saint John's, Terranova i Labrador, Canadà

latitud: 47-37N, longitud: 052-44W, altitud: 134 m

Observació

L'informe es va fer fa 38 minuts, a les 21:00 UTC
Vent 11 kt del Oest
Temperatura 13°C
Humitat 67%
Pressió 1020 hPa
Visibilitat: 24.1 km
Escasses núvols a una alçada de 24000 ft

METAR: CYYT 192100Z 26011KT 15SM FEW240 13/07 A3011 RMK CI1 SLP201

Hora: 19:08 (21:38 UTC)

Pronòstic

L'informe es va fer fa 4 hores i 0 minuts, a les 17:38 UTC
Pronòstic vàlid del 19 a les 18 UTC al 20 a les 18 UTC
Vent 12 kt del Oest/Nord-Oest amb ràfegues de 22 kt
Visibilitat: 10 km
Escasses núvols a una alçada de 4000 ft
Evolucionant progressivament
l' 19 a les 20 UTC al 19 a les 22 UTC
Vent 12 kt del Oest/Sud-Oest
Evolucionant progressivament
l' 20 a les 16 UTC al 20 a les 18 UTC
Vent 12 kt del Sud

TAF: CYYT 191738Z 1918/2018 29012G22KT P6SM FEW040 BECMG 1920/1922 25012KT BECMG 2016/2018 18012KT RMK NXT FCST BY 200000Z

Observacions i pronòstics meteorològics de més de 4000 aeroports (METAR i TAF).

Les estacions disponibles són els punts grocs i vermells al mapa.

Posi el ratolí al punt desitjat per veure el nom de l'estació.

Feu clic per veure les observacions i els pronòstics meteorològics.

Per canviar el mapa: feu clic els botons verds amb una creu de color negre per apropar; al botó verd amb un guió per allunyar la imatge; o en les fletxes verdes per a mapes adjacents.


METAR-TAF: